sensor_id;sensor_type;location;lat;lon;timestamp;pressure;altitude;pressure_sealevel;temperature;humidity
12897;BME280;6516;35.028;32.372;2023-04-24T00:02:24;99729.91;;;14.95;100.00
12897;BME280;6516;35.028;32.372;2023-04-24T00:04:52;99717.50;;;14.96;100.00
12897;BME280;6516;35.028;32.372;2023-04-24T00:07:22;99716.72;;;14.94;100.00
12897;BME280;6516;35.028;32.372;2023-04-24T00:09:51;99720.31;;;14.93;100.00
12897;BME280;6516;35.028;32.372;2023-04-24T00:12:19;99719.50;;;14.91;100.00
12897;BME280;6516;35.028;32.372;2023-04-24T00:14:47;99714.84;;;14.96;100.00
12897;BME280;6516;35.028;32.372;2023-04-24T00:17:15;99719.25;;;14.97;100.00
12897;BME280;6516;35.028;32.372;2023-04-24T00:19:45;99710.31;;;14.99;100.00
12897;BME280;6516;35.028;32.372;2023-04-24T00:22:14;99718.31;;;14.98;100.00
12897;BME280;6516;35.028;32.372;2023-04-24T00:24:45;99711.31;;;14.97;100.00
12897;BME280;6516;35.028;32.372;2023-04-24T00:27:14;99704.00;;;15.02;100.00
12897;BME280;6516;35.028;32.372;2023-04-24T00:29:42;99702.09;;;15.05;100.00
12897;BME280;6516;35.028;32.372;2023-04-24T00:32:10;99703.03;;;15.04;100.00
12897;BME280;6516;35.028;32.372;2023-04-24T00:34:38;99690.69;;;15.03;100.00
12897;BME280;6516;35.028;32.372;2023-04-24T00:37:05;99699.31;;;15.08;100.00
12897;BME280;6516;35.028;32.372;2023-04-24T00:39:33;99690.38;;;15.11;100.00
12897;BME280;6516;35.028;32.372;2023-04-24T00:42:03;99690.44;;;15.09;100.00
12897;BME280;6516;35.028;32.372;2023-04-24T00:44:32;99690.47;;;15.08;100.00
12897;BME280;6516;35.028;32.372;2023-04-24T00:47:01;99687.84;;;15.08;100.00
12897;BME280;6516;35.028;32.372;2023-04-24T00:49:29;99690.53;;;15.06;100.00
12897;BME280;6516;35.028;32.372;2023-04-24T00:51:56;99691.47;;;15.05;100.00
12897;BME280;6516;35.028;32.372;2023-04-24T00:54:25;99691.53;;;15.04;100.00
12897;BME280;6516;35.028;32.372;2023-04-24T00:56:52;99683.47;;;15.07;100.00
12897;BME280;6516;35.028;32.372;2023-04-24T00:59:22;99687.88;;;15.06;100.00
12897;BME280;6516;35.028;32.372;2023-04-24T01:01:50;99682.59;;;15.06;100.00
12897;BME280;6516;35.028;32.372;2023-04-24T01:04:18;99681.75;;;15.06;100.00
12897;BME280;6516;35.028;32.372;2023-04-24T01:06:46;99688.88;;;15.04;100.00
12897;BME280;6516;35.028;32.372;2023-04-24T01:09:14;99683.66;;;15.02;100.00
12897;BME280;6516;35.028;32.372;2023-04-24T01:11:42;99689.03;;;15.01;100.00
12897;BME280;6516;35.028;32.372;2023-04-24T01:14:10;99691.81;;;14.98;100.00
12897;BME280;6516;35.028;32.372;2023-04-24T01:16:40;99690.03;;;14.98;100.00
12897;BME280;6516;35.028;32.372;2023-04-24T01:19:08;99689.16;;;14.98;100.00
12897;BME280;6516;35.028;32.372;2023-04-24T01:21:38;99685.78;;;14.94;100.00
12897;BME280;6516;35.028;32.372;2023-04-24T01:24:08;99678.75;;;14.93;100.00
12897;BME280;6516;35.028;32.372;2023-04-24T01:26:36;99692.09;;;14.92;100.00
12897;BME280;6516;35.028;32.372;2023-04-24T01:29:03;99683.25;;;14.91;100.00
12897;BME280;6516;35.028;32.372;2023-04-24T01:31:32;99683.19;;;14.93;100.00
12897;BME280;6516;35.028;32.372;2023-04-24T01:34:00;99675.38;;;14.90;100.00
12897;BME280;6516;35.028;32.372;2023-04-24T01:36:28;99674.59;;;14.88;100.00
12897;BME280;6516;35.028;32.372;2023-04-24T01:38:57;99685.31;;;14.85;100.00
12897;BME280;6516;35.028;32.372;2023-04-24T01:41:27;99675.88;;;14.78;100.00
12897;BME280;6516;35.028;32.372;2023-04-24T01:43:57;99678.53;;;14.78;100.00
12897;BME280;6516;35.028;32.372;2023-04-24T01:46:24;99677.69;;;14.77;100.00
12897;BME280;6516;35.028;32.372;2023-04-24T01:48:52;99676.75;;;14.78;100.00
12897;BME280;6516;35.028;32.372;2023-04-24T01:51:21;99670.50;;;14.79;100.00
12897;BME280;6516;35.028;32.372;2023-04-24T01:53:49;99666.22;;;14.77;100.00
12897;BME280;6516;35.028;32.372;2023-04-24T01:56:17;99673.22;;;14.78;100.00
12897;BME280;6516;35.028;32.372;2023-04-24T01:58:48;99669.63;;;14.80;100.00
12897;BME280;6516;35.028;32.372;2023-04-24T02:01:18;99667.94;;;14.78;100.00
12897;BME280;6516;35.028;32.372;2023-04-24T02:03:46;99654.69;;;14.78;100.00
12897;BME280;6516;35.028;32.372;2023-04-24T02:06:14;99666.09;;;14.80;100.00
12897;BME280;6516;35.028;32.372;2023-04-24T02:08:42;99676.63;;;14.81;100.00
12897;BME280;6516;35.028;32.372;2023-04-24T02:11:10;99682.06;;;14.78;100.00
12897;BME280;6516;35.028;32.372;2023-04-24T02:13:38;99701.59;;;14.76;100.00
12897;BME280;6516;35.028;32.372;2023-04-24T02:16:07;99701.59;;;14.76;100.00
12897;BME280;6516;35.028;32.372;2023-04-24T02:18:35;99705.19;;;14.75;100.00
12897;BME280;6516;35.028;32.372;2023-04-24T02:21:03;99708.88;;;14.71;100.00
12897;BME280;6516;35.028;32.372;2023-04-24T02:23:31;99709.16;;;14.65;100.00
12897;BME280;6516;35.028;32.372;2023-04-24T02:25:59;99708.38;;;14.61;100.00
12897;BME280;6516;35.028;32.372;2023-04-24T02:28:26;99706.78;;;14.57;100.00
12897;BME280;6516;35.028;32.372;2023-04-24T02:30:54;99706.09;;;14.52;100.00
12897;BME280;6516;35.028;32.372;2023-04-24T02:33:23;99711.56;;;14.49;100.00
12897;BME280;6516;35.028;32.372;2023-04-24T02:35:51;99725.84;;;14.45;100.00
12897;BME280;6516;35.028;32.372;2023-04-24T02:38:19;99715.19;;;14.47;100.00
12897;BME280;6516;35.028;32.372;2023-04-24T02:40:46;99715.84;;;14.52;100.00
12897;BME280;6516;35.028;32.372;2023-04-24T02:43:14;99711.34;;;14.54;100.00
12897;BME280;6516;35.028;32.372;2023-04-24T02:45:42;99713.22;;;14.52;100.00
12897;BME280;6516;35.028;32.372;2023-04-24T02:48:10;99714.00;;;14.54;100.00
12897;BME280;6516;35.028;32.372;2023-04-24T02:50:39;99715.72;;;14.55;100.00
12897;BME280;6516;35.028;32.372;2023-04-24T02:53:06;99715.72;;;14.55;100.00
12897;BME280;6516;35.028;32.372;2023-04-24T02:55:34;99716.53;;;14.57;100.00
12897;BME280;6516;35.028;32.372;2023-04-24T02:58:02;99719.06;;;14.60;100.00
12897;BME280;6516;35.028;32.372;2023-04-24T03:00:30;99719.13;;;14.58;100.00
12897;BME280;6516;35.028;32.372;2023-04-24T03:02:58;99723.50;;;14.59;100.00
12897;BME280;6516;35.028;32.372;2023-04-24T03:05:25;99727.69;;;14.65;100.00
12897;BME280;6516;35.028;32.372;2023-04-24T03:07:55;99732.66;;;14.72;100.00
12897;BME280;6516;35.028;32.372;2023-04-24T03:10:23;99725.13;;;14.83;100.00
12897;BME280;6516;35.028;32.372;2023-04-24T03:12:51;99732.97;;;14.86;100.00
12897;BME280;6516;35.028;32.372;2023-04-24T03:15:20;99735.59;;;14.86;100.00
12897;BME280;6516;35.028;32.372;2023-04-24T03:17:48;99730.31;;;14.86;100.00
12897;BME280;6516;35.028;32.372;2023-04-24T03:20:16;99733.88;;;14.85;100.00
12897;BME280;6516;35.028;32.372;2023-04-24T03:22:43;99728.59;;;14.85;100.00
12897;BME280;6516;35.028;32.372;2023-04-24T03:25:13;99736.44;;;14.87;100.00
12897;BME280;6516;35.028;32.372;2023-04-24T03:27:40;99736.59;;;14.84;100.00
12897;BME280;6516;35.028;32.372;2023-04-24T03:30:08;99739.25;;;14.84;100.00
12897;BME280;6516;35.028;32.372;2023-04-24T03:32:36;99741.91;;;14.84;100.00
12897;BME280;6516;35.028;32.372;2023-04-24T03:35:05;99736.38;;;14.88;100.00
12897;BME280;6516;35.028;32.372;2023-04-24T03:37:34;99736.22;;;14.93;100.00
12897;BME280;6516;35.028;32.372;2023-04-24T03:40:02;99727.28;;;14.95;100.00
12897;BME280;6516;35.028;32.372;2023-04-24T03:42:33;99724.63;;;14.95;100.00
12897;BME280;6516;35.028;32.372;2023-04-24T03:45:01;99741.25;;;14.99;100.00
12897;BME280;6516;35.028;32.372;2023-04-24T03:47:28;99746.28;;;15.05;100.00
12897;BME280;6516;35.028;32.372;2023-04-24T03:49:56;99742.47;;;15.12;100.00
12897;BME280;6516;35.028;32.372;2023-04-24T03:52:24;99749.16;;;15.20;100.00
12897;BME280;6516;35.028;32.372;2023-04-24T03:54:52;99747.84;;;15.30;100.00
12897;BME280;6516;35.028;32.372;2023-04-24T03:57:21;99753.50;;;15.43;100.00
12897;BME280;6516;35.028;32.372;2023-04-24T03:59:50;99753.81;;;15.55;100.00
12897;BME280;6516;35.028;32.372;2023-04-24T04:02:19;99759.34;;;15.89;100.00
12897;BME280;6516;35.028;32.372;2023-04-24T04:04:46;99757.81;;;16.41;100.00
12897;BME280;6516;35.028;32.372;2023-04-24T04:07:14;99760.16;;;17.01;100.00
12897;BME280;6516;35.028;32.372;2023-04-24T04:09:42;99762.56;;;17.73;100.00
12897;BME280;6516;35.028;32.372;2023-04-24T04:12:12;99767.13;;;18.04;96.50
12897;BME280;6516;35.028;32.372;2023-04-24T04:14:40;99764.53;;;18.35;93.01
12897;BME280;6516;35.028;32.372;2023-04-24T04:17:09;99768.41;;;18.45;89.44
12897;BME280;6516;35.028;32.372;2023-04-24T04:19:37;99763.59;;;18.67;89.67
12897;BME280;6516;35.028;32.372;2023-04-24T04:22:04;99756.81;;;18.77;88.07
12897;BME280;6516;35.028;32.372;2023-04-24T04:24:33;99766.16;;;18.84;86.58
12897;BME280;6516;35.028;32.372;2023-04-24T04:27:03;99764.00;;;18.90;86.59
12897;BME280;6516;35.028;32.372;2023-04-24T04:29:33;99767.03;;;18.84;84.47
12897;BME280;6516;35.028;32.372;2023-04-24T04:32:01;99772.69;;;18.94;85.29
12897;BME280;6516;35.028;32.372;2023-04-24T04:34:31;99784.72;;;19.01;84.61
12897;BME280;6516;35.028;32.372;2023-04-24T04:36:58;99785.31;;;19.06;83.47
12897;BME280;6516;35.028;32.372;2023-04-24T04:39:27;99779.69;;;19.26;82.43
12897;BME280;6516;35.028;32.372;2023-04-24T04:41:56;99783.16;;;19.28;80.00
12897;BME280;6516;35.028;32.372;2023-04-24T04:44:24;99786.41;;;19.17;79.18
12897;BME280;6516;35.028;32.372;2023-04-24T04:46:53;99785.50;;;19.03;79.37
12897;BME280;6516;35.028;32.372;2023-04-24T04:49:21;99785.56;;;19.01;78.33
12897;BME280;6516;35.028;32.372;2023-04-24T04:51:51;99790.38;;;19.26;77.85
12897;BME280;6516;35.028;32.372;2023-04-24T04:54:19;99781.13;;;19.61;77.69
12897;BME280;6516;35.028;32.372;2023-04-24T04:56:46;99778.31;;;19.92;75.80
12897;BME280;6516;35.028;32.372;2023-04-24T04:59:14;99788.41;;;20.17;73.24
12897;BME280;6516;35.028;32.372;2023-04-24T05:01:42;99779.41;;;20.32;72.50
12897;BME280;6516;35.028;32.372;2023-04-24T05:04:10;99775.78;;;20.19;72.52
12897;BME280;6516;35.028;32.372;2023-04-24T05:06:37;99791.50;;;19.95;72.52
12897;BME280;6516;35.028;32.372;2023-04-24T05:09:07;99788.78;;;19.81;73.51
12897;BME280;6516;35.028;32.372;2023-04-24T05:11:34;99800.47;;;19.50;73.30
12897;BME280;6516;35.028;32.372;2023-04-24T05:14:02;99793.03;;;19.55;73.74
12897;BME280;6516;35.028;32.372;2023-04-24T05:16:30;99796.34;;;19.75;73.53
12897;BME280;6516;35.028;32.372;2023-04-24T05:18:58;99792.47;;;20.08;71.88
12897;BME280;6516;35.028;32.372;2023-04-24T05:21:25;99798.41;;;20.41;70.54
12897;BME280;6516;35.028;32.372;2023-04-24T05:23:53;99789.63;;;20.94;69.42
12897;BME280;6516;35.028;32.372;2023-04-24T05:26:22;99787.63;;;21.36;67.19
12897;BME280;6516;35.028;32.372;2023-04-24T05:28:50;99791.47;;;21.32;66.10
12897;BME280;6516;35.028;32.372;2023-04-24T05:31:18;99794.63;;;21.12;66.16
12897;BME280;6516;35.028;32.372;2023-04-24T05:33:46;99797.00;;;20.90;66.57
12897;BME280;6516;35.028;32.372;2023-04-24T05:36:13;99798.53;;;20.66;66.76
12897;BME280;6516;35.028;32.372;2023-04-24T05:38:41;99803.47;;;20.32;66.66
12897;BME280;6516;35.028;32.372;2023-04-24T05:41:10;99807.06;;;20.03;66.85
12897;BME280;6516;35.028;32.372;2023-04-24T05:43:39;99812.19;;;19.92;66.73
12897;BME280;6516;35.028;32.372;2023-04-24T05:46:11;99812.16;;;20.21;67.48
12897;BME280;6516;35.028;32.372;2023-04-24T05:48:39;99802.88;;;20.55;65.78
12897;BME280;6516;35.028;32.372;2023-04-24T05:51:06;99811.28;;;20.63;66.37
12897;BME280;6516;35.028;32.372;2023-04-24T05:53:34;99817.66;;;20.74;65.19
12897;BME280;6516;35.028;32.372;2023-04-24T05:56:02;99819.81;;;20.96;65.91
12897;BME280;6516;35.028;32.372;2023-04-24T05:58:30;99809.41;;;21.18;64.57
12897;BME280;6516;35.028;32.372;2023-04-24T06:00:59;99813.81;;;21.45;63.93
12897;BME280;6516;35.028;32.372;2023-04-24T06:03:28;99818.94;;;21.87;62.49
12897;BME280;6516;35.028;32.372;2023-04-24T06:05:55;99824.22;;;22.01;61.07
12897;BME280;6516;35.028;32.372;2023-04-24T06:08:24;99837.63;;;22.01;61.55
12897;BME280;6516;35.028;32.372;2023-04-24T06:10:51;99842.53;;;21.70;62.25
12897;BME280;6516;35.028;32.372;2023-04-24T06:13:19;99841.44;;;21.72;61.87
12897;BME280;6516;35.028;32.372;2023-04-24T06:15:47;99840.09;;;22.04;61.46
12897;BME280;6516;35.028;32.372;2023-04-24T06:18:16;99839.34;;;22.52;61.32
12897;BME280;6516;35.028;32.372;2023-04-24T06:20:45;99845.09;;;23.07;60.45
12897;BME280;6516;35.028;32.372;2023-04-24T06:23:13;99841.63;;;23.30;58.70
12897;BME280;6516;35.028;32.372;2023-04-24T06:25:41;99839.94;;;23.17;57.11
12897;BME280;6516;35.028;32.372;2023-04-24T06:28:08;99856.00;;;22.93;56.97
12897;BME280;6516;35.028;32.372;2023-04-24T06:30:36;99847.72;;;22.96;56.62
12897;BME280;6516;35.028;32.372;2023-04-24T06:33:04;99837.91;;;23.20;57.27
12897;BME280;6516;35.028;32.372;2023-04-24T06:35:33;99850.44;;;23.32;53.54
12897;BME280;6516;35.028;32.372;2023-04-24T06:38:01;99847.97;;;23.53;54.75
12897;BME280;6516;35.028;32.372;2023-04-24T06:40:29;99838.41;;;23.83;54.64
12897;BME280;6516;35.028;32.372;2023-04-24T06:42:57;99844.38;;;23.99;54.32
12897;BME280;6516;35.028;32.372;2023-04-24T06:45:25;99848.91;;;23.75;54.20
12897;BME280;6516;35.028;32.372;2023-04-24T06:47:53;99857.31;;;23.71;54.13
12897;BME280;6516;35.028;32.372;2023-04-24T06:50:21;99844.66;;;23.84;53.65
12897;BME280;6516;35.028;32.372;2023-04-24T06:52:50;99839.34;;;23.95;53.22
12897;BME280;6516;35.028;32.372;2023-04-24T06:55:18;99843.94;;;24.38;51.96
12897;BME280;6516;35.028;32.372;2023-04-24T06:57:46;99844.84;;;24.83;49.31
12897;BME280;6516;35.028;32.372;2023-04-24T07:00:14;99847.09;;;25.31;48.65
12897;BME280;6516;35.028;32.372;2023-04-24T07:02:42;99855.06;;;25.64;49.34
12897;BME280;6516;35.028;32.372;2023-04-24T07:05:10;99860.06;;;26.00;48.40
12897;BME280;6516;35.028;32.372;2023-04-24T07:07:38;99860.59;;;25.94;48.62
12897;BME280;6516;35.028;32.372;2023-04-24T07:10:08;99862.34;;;25.53;47.16
12897;BME280;6516;35.028;32.372;2023-04-24T07:12:36;99858.28;;;25.05;47.29
12897;BME280;6516;35.028;32.372;2023-04-24T07:15:05;99856.91;;;25.10;48.57
12897;BME280;6516;35.028;32.372;2023-04-24T07:17:34;99858.47;;;25.35;48.97
12897;BME280;6516;35.028;32.372;2023-04-24T07:20:05;99862.78;;;25.69;47.78
12897;BME280;6516;35.028;32.372;2023-04-24T07:22:35;99866.50;;;26.09;47.20
12897;BME280;6516;35.028;32.372;2023-04-24T07:25:03;99865.88;;;25.85;46.19
12897;BME280;6516;35.028;32.372;2023-04-24T07:27:32;99876.78;;;25.83;46.48
12897;BME280;6516;35.028;32.372;2023-04-24T07:30:01;99874.22;;;25.50;47.37
12897;BME280;6516;35.028;32.372;2023-04-24T07:32:29;99868.25;;;25.47;48.22
12897;BME280;6516;35.028;32.372;2023-04-24T07:34:57;99876.34;;;25.36;48.48
12897;BME280;6516;35.028;32.372;2023-04-24T07:37:25;99876.50;;;25.12;48.24
12897;BME280;6516;35.028;32.372;2023-04-24T07:40:18;99884.97;;;24.86;48.58
12897;BME280;6516;35.028;32.372;2023-04-24T07:42:47;99877.22;;;25.25;47.04
12897;BME280;6516;35.028;32.372;2023-04-24T07:45:15;99880.25;;;25.74;46.85
12897;BME280;6516;35.028;32.372;2023-04-24T07:47:43;99877.97;;;26.01;45.71
12897;BME280;6516;35.028;32.372;2023-04-24T07:50:12;99879.13;;;26.49;44.51
12897;BME280;6516;35.028;32.372;2023-04-24T07:52:40;99884.47;;;26.60;45.17
12897;BME280;6516;35.028;32.372;2023-04-24T07:55:08;99881.53;;;27.03;44.30
12897;BME280;6516;35.028;32.372;2023-04-24T07:57:36;99887.25;;;27.09;43.47
12897;BME280;6516;35.028;32.372;2023-04-24T08:00:07;99892.31;;;26.93;43.65
12897;BME280;6516;35.028;32.372;2023-04-24T08:02:35;99888.56;;;26.75;44.76
12897;BME280;6516;35.028;32.372;2023-04-24T08:05:04;99883.84;;;27.08;43.39
12897;BME280;6516;35.028;32.372;2023-04-24T08:07:32;99881.25;;;27.36;42.47
12897;BME280;6516;35.028;32.372;2023-04-24T08:10:01;99885.69;;;27.56;41.23
12897;BME280;6516;35.028;32.372;2023-04-24T08:12:29;99879.41;;;27.56;40.01
12897;BME280;6516;35.028;32.372;2023-04-24T08:14:56;99877.00;;;27.62;39.43
12897;BME280;6516;35.028;32.372;2023-04-24T08:17:26;99882.09;;;27.56;39.58
12897;BME280;6516;35.028;32.372;2023-04-24T08:19:53;99881.97;;;27.76;40.32
12897;BME280;6516;35.028;32.372;2023-04-24T08:22:27;99881.56;;;27.62;39.22
12897;BME280;6516;35.028;32.372;2023-04-24T08:24:54;99879.72;;;27.13;39.73
12897;BME280;6516;35.028;32.372;2023-04-24T08:27:23;99876.22;;;27.22;39.56
12897;BME280;6516;35.028;32.372;2023-04-24T08:29:52;99870.25;;;27.38;39.05
12897;BME280;6516;35.028;32.372;2023-04-24T08:32:21;99873.41;;;27.43;39.08
12897;BME280;6516;35.028;32.372;2023-04-24T08:34:51;99873.03;;;27.17;39.26
12897;BME280;6516;35.028;32.372;2023-04-24T08:37:19;99878.09;;;27.41;39.01
12897;BME280;6516;35.028;32.372;2023-04-24T08:39:47;99870.44;;;27.46;37.59
12897;BME280;6516;35.028;32.372;2023-04-24T08:42:17;99873.16;;;27.55;38.42
12897;BME280;6516;35.028;32.372;2023-04-24T08:44:45;99876.72;;;27.46;38.39
12897;BME280;6516;35.028;32.372;2023-04-24T08:47:13;99874.97;;;27.45;38.88
12897;BME280;6516;35.028;32.372;2023-04-24T08:49:43;99878.13;;;27.50;39.11
12897;BME280;6516;35.028;32.372;2023-04-24T08:52:12;99884.22;;;27.43;39.19
12897;BME280;6516;35.028;32.372;2023-04-24T08:54:41;99896.91;;;27.42;38.51
12897;BME280;6516;35.028;32.372;2023-04-24T08:57:11;99887.09;;;27.51;39.77
12897;BME280;6516;35.028;32.372;2023-04-24T08:59:42;99896.78;;;27.44;39.50
12897;BME280;6516;35.028;32.372;2023-04-24T09:02:10;99893.06;;;27.45;40.05
12897;BME280;6516;35.028;32.372;2023-04-24T09:04:39;99895.53;;;27.17;41.38
12897;BME280;6516;35.028;32.372;2023-04-24T09:07:08;99896.44;;;27.28;39.86
12897;BME280;6516;35.028;32.372;2023-04-24T09:09:39;99892.50;;;27.41;39.64
12897;BME280;6516;35.028;32.372;2023-04-24T09:12:08;99892.06;;;27.36;39.32
12897;BME280;6516;35.028;32.372;2023-04-24T09:14:36;99897.50;;;27.65;38.63
12897;BME280;6516;35.028;32.372;2023-04-24T09:17:08;99889.69;;;27.62;38.01
12897;BME280;6516;35.028;32.372;2023-04-24T09:19:36;99897.22;;;27.68;37.30
12897;BME280;6516;35.028;32.372;2023-04-24T09:22:05;99895.00;;;27.82;36.60
12897;BME280;6516;35.028;32.372;2023-04-24T09:24:34;99901.25;;;28.02;37.50
12897;BME280;6516;35.028;32.372;2023-04-24T09:27:02;99892.25;;;28.11;37.37
12897;BME280;6516;35.028;32.372;2023-04-24T09:29:31;99888.84;;;28.09;37.25
12897;BME280;6516;35.028;32.372;2023-04-24T09:31:59;99896.25;;;28.26;38.08
12897;BME280;6516;35.028;32.372;2023-04-24T09:34:27;99896.22;;;28.35;37.75
12897;BME280;6516;35.028;32.372;2023-04-24T09:36:55;99893.69;;;28.24;37.02
12897;BME280;6516;35.028;32.372;2023-04-24T09:39:22;99895.38;;;28.35;35.63
12897;BME280;6516;35.028;32.372;2023-04-24T09:41:53;99894.00;;;28.12;37.26
12897;BME280;6516;35.028;32.372;2023-04-24T09:44:23;99896.41;;;28.05;38.19
12897;BME280;6516;35.028;32.372;2023-04-24T09:46:54;99897.81;;;28.19;38.89
12897;BME280;6516;35.028;32.372;2023-04-24T09:49:23;99894.22;;;28.47;37.82
12897;BME280;6516;35.028;32.372;2023-04-24T09:51:52;99902.50;;;28.55;36.70
12897;BME280;6516;35.028;32.372;2023-04-24T09:54:21;99896.22;;;28.54;36.40
12897;BME280;6516;35.028;32.372;2023-04-24T09:56:50;99894.78;;;28.60;37.48
12897;BME280;6516;35.028;32.372;2023-04-24T09:59:19;99898.78;;;28.56;37.20
12897;BME280;6516;35.028;32.372;2023-04-24T10:01:47;99905.03;;;28.66;36.38
12897;BME280;6516;35.028;32.372;2023-04-24T10:04:17;99909.47;;;28.38;37.18
12897;BME280;6516;35.028;32.372;2023-04-24T10:06:46;99911.22;;;28.30;38.13
12897;BME280;6516;35.028;32.372;2023-04-24T10:09:16;99915.91;;;28.37;39.19
12897;BME280;6516;35.028;32.372;2023-04-24T10:11:46;99919.75;;;28.54;38.43
12897;BME280;6516;35.028;32.372;2023-04-24T10:14:19;99924.16;;;28.64;37.55
12897;BME280;6516;35.028;32.372;2023-04-24T10:16:48;99921.31;;;28.66;37.58
12897;BME280;6516;35.028;32.372;2023-04-24T10:19:17;99928.09;;;28.70;38.22
12897;BME280;6516;35.028;32.372;2023-04-24T10:21:45;99923.28;;;28.73;37.81
12897;BME280;6516;35.028;32.372;2023-04-24T10:24:14;99925.38;;;28.89;37.09
12897;BME280;6516;35.028;32.372;2023-04-24T10:26:43;99921.03;;;28.59;37.04
12897;BME280;6516;35.028;32.372;2023-04-24T10:29:14;99922.06;;;28.49;38.17
12897;BME280;6516;35.028;32.372;2023-04-24T10:31:45;99921.00;;;28.69;37.87
12897;BME280;6516;35.028;32.372;2023-04-24T10:34:15;99919.63;;;28.27;38.09
12897;BME280;6516;35.028;32.372;2023-04-24T10:36:46;99922.75;;;28.51;38.87
12897;BME280;6516;35.028;32.372;2023-04-24T10:39:17;99915.28;;;28.72;37.47
12897;BME280;6516;35.028;32.372;2023-04-24T10:41:48;99923.47;;;28.53;38.50
12897;BME280;6516;35.028;32.372;2023-04-24T10:44:16;99916.44;;;28.60;37.89
12897;BME280;6516;35.028;32.372;2023-04-24T10:46:46;99920.56;;;28.64;38.03
12897;BME280;6516;35.028;32.372;2023-04-24T10:49:28;99916.97;;;28.73;37.69
12897;BME280;6516;35.028;32.372;2023-04-24T10:52:01;99916.97;;;28.73;38.30
12897;BME280;6516;35.028;32.372;2023-04-24T10:54:34;99911.41;;;28.84;37.43
12897;BME280;6516;35.028;32.372;2023-04-24T10:57:27;99910.56;;;28.74;38.08
12897;BME280;6516;35.028;32.372;2023-04-24T11:00:16;99907.28;;;28.80;37.87
12897;BME280;6516;35.028;32.372;2023-04-24T11:02:48;99912.78;;;28.42;38.23
12897;BME280;6516;35.028;32.372;2023-04-24T11:05:19;99914.03;;;28.38;39.19
12897;BME280;6516;35.028;32.372;2023-04-24T11:08:12;99911.31;;;28.38;39.40
12897;BME280;6516;35.028;32.372;2023-04-24T11:10:44;99912.66;;;28.34;39.32
12897;BME280;6516;35.028;32.372;2023-04-24T11:13:15;99913.38;;;28.45;40.10
12897;BME280;6516;35.028;32.372;2023-04-24T11:15:43;99909.06;;;28.52;40.27
12897;BME280;6516;35.028;32.372;2023-04-24T11:18:16;99910.47;;;28.47;41.45
12897;BME280;6516;35.028;32.372;2023-04-24T11:20:43;99912.22;;;28.48;41.48
12897;BME280;6516;35.028;32.372;2023-04-24T11:23:12;99905.78;;;28.49;41.67
12897;BME280;6516;35.028;32.372;2023-04-24T11:25:41;99906.91;;;28.56;40.74
12897;BME280;6516;35.028;32.372;2023-04-24T11:28:14;99911.31;;;28.38;40.91
12897;BME280;6516;35.028;32.372;2023-04-24T11:30:43;99903.22;;;28.19;40.32
12897;BME280;6516;35.028;32.372;2023-04-24T11:33:11;99906.38;;;28.05;41.17
12897;BME280;6516;35.028;32.372;2023-04-24T11:35:40;99902.66;;;28.15;39.71
12897;BME280;6516;35.028;32.372;2023-04-24T11:38:10;99903.41;;;28.08;39.91
12897;BME280;6516;35.028;32.372;2023-04-24T11:40:38;99915.34;;;28.15;40.01
12897;BME280;6516;35.028;32.372;2023-04-24T11:43:06;99905.94;;;28.19;41.24
12897;BME280;6516;35.028;32.372;2023-04-24T11:45:34;99908.38;;;28.22;40.64
12897;BME280;6516;35.028;32.372;2023-04-24T11:48:02;99908.50;;;28.30;39.94
12897;BME280;6516;35.028;32.372;2023-04-24T11:50:30;99900.25;;;28.22;40.12
12897;BME280;6516;35.028;32.372;2023-04-24T11:53:00;99900.97;;;28.05;40.61
12897;BME280;6516;35.028;32.372;2023-04-24T11:55:28;99897.78;;;27.71;41.29
12897;BME280;6516;35.028;32.372;2023-04-24T11:57:57;99891.66;;;27.60;41.77
12897;BME280;6516;35.028;32.372;2023-04-24T12:00:27;99885.41;;;27.78;41.03
12897;BME280;6516;35.028;32.372;2023-04-24T12:03:04;99882.84;;;27.77;39.31
12897;BME280;6516;35.028;32.372;2023-04-24T12:05:33;99895.69;;;27.75;39.52
12897;BME280;6516;35.028;32.372;2023-04-24T12:08:03;99884.00;;;27.74;39.28
12897;BME280;6516;35.028;32.372;2023-04-24T12:10:33;99882.16;;;27.84;39.75
12897;BME280;6516;35.028;32.372;2023-04-24T12:13:01;99878.00;;;27.71;39.18
12897;BME280;6516;35.028;32.372;2023-04-24T12:15:29;99884.69;;;27.67;39.69
12897;BME280;6516;35.028;32.372;2023-04-24T12:17:57;99883.72;;;27.77;38.64
12897;BME280;6516;35.028;32.372;2023-04-24T12:20:29;99887.69;;;27.64;39.30
12897;BME280;6516;35.028;32.372;2023-04-24T12:22:59;99880.13;;;27.67;39.46
12897;BME280;6516;35.028;32.372;2023-04-24T12:25:30;99889.16;;;27.87;38.86
12897;BME280;6516;35.028;32.372;2023-04-24T12:28:10;99888.28;;;27.96;39.44
12897;BME280;6516;35.028;32.372;2023-04-24T12:30:40;99881.88;;;28.16;38.75
12897;BME280;6516;35.028;32.372;2023-04-24T12:33:10;99881.75;;;28.08;37.63
12897;BME280;6516;35.028;32.372;2023-04-24T12:35:41;99896.56;;;28.04;38.47
12897;BME280;6516;35.028;32.372;2023-04-24T12:38:12;99893.44;;;27.99;38.55
12897;BME280;6516;35.028;32.372;2023-04-24T12:40:40;99886.88;;;27.92;38.50
12897;BME280;6516;35.028;32.372;2023-04-24T12:43:15;99885.00;;;27.83;38.49
12897;BME280;6516;35.028;32.372;2023-04-24T12:45:45;99889.09;;;27.68;39.24
12897;BME280;6516;35.028;32.372;2023-04-24T12:48:14;99888.13;;;27.59;39.45
12897;BME280;6516;35.028;32.372;2023-04-24T12:50:43;99903.44;;;27.49;38.15
12897;BME280;6516;35.028;32.372;2023-04-24T12:53:12;99898.63;;;27.62;39.10
12897;BME280;6516;35.028;32.372;2023-04-24T12:55:40;99899.59;;;27.52;38.67
12897;BME280;6516;35.028;32.372;2023-04-24T12:58:08;99899.03;;;27.48;39.09
12897;BME280;6516;35.028;32.372;2023-04-24T13:00:35;99892.50;;;27.51;38.99
12897;BME280;6516;35.028;32.372;2023-04-24T13:03:03;99893.50;;;27.50;39.13
12897;BME280;6516;35.028;32.372;2023-04-24T13:05:31;99889.38;;;27.55;39.37
12897;BME280;6516;35.028;32.372;2023-04-24T13:07:59;99894.91;;;27.44;37.92